createdAt,value
2018-05-24T00:00:28.953Z,74.10
2018-05-24T00:03:32.334Z,74.90
2018-05-24T00:06:35.740Z,75.50
2018-05-24T00:09:39.125Z,76.20
2018-05-24T00:12:42.512Z,77.20
2018-05-24T00:15:45.896Z,78.70
2018-05-24T00:18:49.332Z,79.10
2018-05-24T00:21:54.253Z,79.00
2018-05-24T00:24:57.552Z,79.00
2018-05-24T00:28:00.944Z,78.90
2018-05-24T00:31:04.282Z,79.40
2018-05-24T00:34:08.416Z,82.70
2018-05-24T00:37:11.752Z,82.60
2018-05-24T00:40:15.095Z,82.80
2018-05-24T00:43:18.446Z,82.50
2018-05-24T00:46:21.832Z,82.70
2018-05-24T00:49:25.196Z,82.80
2018-05-24T00:52:28.540Z,83.10
2018-05-24T00:55:42.749Z,83.50
2018-05-24T00:58:46.149Z,83.30
2018-05-24T01:01:49.465Z,84.30
2018-05-24T01:04:52.794Z,84.50
2018-05-24T01:07:56.171Z,84.70
2018-05-24T01:10:59.568Z,84.80
2018-05-24T01:14:02.979Z,84.80
2018-05-24T01:17:06.326Z,84.80
2018-05-24T01:20:09.726Z,84.50
2018-05-24T01:23:13.177Z,84.10
2018-05-24T01:26:17.282Z,79.20
2018-05-24T01:29:20.617Z,82.70
2018-05-24T01:32:23.925Z,82.80
2018-05-24T01:35:28.037Z,83.60
2018-05-24T01:38:31.395Z,83.50
2018-05-24T01:41:34.757Z,83.10
2018-05-24T01:44:38.177Z,83.10
2018-05-24T01:47:41.561Z,82.60
2018-05-24T01:50:44.946Z,82.30
2018-05-24T01:53:48.323Z,81.90
2018-05-24T01:56:51.661Z,82.00
2018-05-24T01:59:55.015Z,82.00
2018-05-24T02:02:58.363Z,81.90
2018-05-24T02:06:02.505Z,82.00
2018-05-24T02:09:06.616Z,82.80
2018-05-24T02:12:10.802Z,83.20
2018-05-24T02:15:14.110Z,83.10
2018-05-24T02:18:17.454Z,83.30
2018-05-24T02:21:20.781Z,84.10
2018-05-24T02:24:24.187Z,84.50
2018-05-24T02:27:27.498Z,84.30
2018-05-24T02:30:32.339Z,84.90
2018-05-24T02:33:35.725Z,85.00
2018-05-24T02:36:39.083Z,85.60
2018-05-24T02:39:42.399Z,86.40
2018-05-24T02:42:45.795Z,87.20
2018-05-24T02:45:49.197Z,88.00
2018-05-24T02:48:52.510Z,88.40
2018-05-24T02:51:56.715Z,89.30
2018-05-24T02:55:00.077Z,89.10
2018-05-24T02:58:03.475Z,89.70
2018-05-24T03:01:06.867Z,89.90
2018-05-24T03:04:10.171Z,90.10
2018-05-24T03:07:13.561Z,90.10
2018-05-24T03:10:16.893Z,90.10
2018-05-24T03:13:20.294Z,90.10
2018-05-24T03:16:23.696Z,90.20
2018-05-24T03:19:27.181Z,90.20
2018-05-24T03:22:30.639Z,90.20
2018-05-24T03:25:33.994Z,90.30
2018-05-24T03:28:37.304Z,90.40
2018-05-24T03:31:41.479Z,90.60
2018-05-24T03:34:44.974Z,90.30
2018-05-24T03:37:48.344Z,90.10
2018-05-24T03:40:51.701Z,89.30
2018-05-24T03:43:55.825Z,86.50
2018-05-24T03:46:59.146Z,86.30
2018-05-24T03:50:02.484Z,85.00
2018-05-24T03:53:05.802Z,84.10
2018-05-24T03:56:09.149Z,83.80
2018-05-24T04:03:40.558Z,83.20
2018-05-24T04:06:43.955Z,83.40
2018-05-24T04:09:47.353Z,85.40
2018-05-24T04:12:50.744Z,86.30
2018-05-24T04:15:54.159Z,86.80
2018-05-24T04:18:57.473Z,87.90
2018-05-24T04:22:00.797Z,88.00
2018-05-24T04:25:04.132Z,88.40
2018-05-24T04:28:07.534Z,88.20
2018-05-24T04:31:10.928Z,87.60
2018-05-24T04:34:14.339Z,87.40
2018-05-24T04:37:17.673Z,86.70
2018-05-24T04:40:21.834Z,86.50
2018-05-24T04:43:25.158Z,86.50
2018-05-24T04:46:29.963Z,85.80
2018-05-24T04:49:33.339Z,85.90
2018-05-24T04:52:36.759Z,85.00
2018-05-24T04:55:40.088Z,84.10
2018-05-24T04:58:44.176Z,82.00
2018-05-24T05:01:47.501Z,82.00
2018-05-24T05:04:51.604Z,81.40
2018-05-24T05:07:54.924Z,81.40
2018-05-24T05:10:58.386Z,80.80
2018-05-24T05:14:01.720Z,79.70
2018-05-24T05:17:05.830Z,78.30
2018-05-24T05:20:09.918Z,77.60
2018-05-24T05:23:13.356Z,76.80
2018-05-24T05:26:16.591Z,76.80
2018-05-24T05:29:19.888Z,76.50
2018-05-24T05:32:23.290Z,74.90
2018-05-24T05:35:26.725Z,73.80
2018-05-24T05:38:30.909Z,72.20
2018-05-24T05:41:34.221Z,72.10
2018-05-24T05:44:38.416Z,71.90
2018-05-24T05:47:41.816Z,71.70
2018-05-24T05:50:45.197Z,71.80
2018-05-24T05:53:48.547Z,71.00
2018-05-24T05:56:52.669Z,69.30
2018-05-24T05:59:56.025Z,69.30
2018-05-24T06:02:59.349Z,68.90
2018-05-24T06:06:03.429Z,67.00
2018-05-24T06:09:08.269Z,67.00
2018-05-24T06:12:11.654Z,66.40
2018-05-24T06:15:14.974Z,65.70
2018-05-24T06:18:18.444Z,66.30
2018-05-24T06:21:22.354Z,67.30
2018-05-24T06:24:26.113Z,67.30
2018-05-24T06:27:29.592Z,63.90
2018-05-24T06:30:34.125Z,64.60
2018-05-24T06:33:37.632Z,63.80
2018-05-24T06:36:41.762Z,61.10
2018-05-24T06:39:45.089Z,61.10
2018-05-24T06:42:48.706Z,60.00
2018-05-24T06:45:52.104Z,59.90
2018-05-24T06:48:55.455Z,59.70
2018-05-24T06:51:58.770Z,58.90
2018-05-24T06:55:02.113Z,58.90
2018-05-24T06:58:05.434Z,58.10
2018-05-24T07:01:09.513Z,58.90
2018-05-24T07:04:13.617Z,59.20
2018-05-24T07:07:16.974Z,59.10
2018-05-24T07:10:20.293Z,59.40
2018-05-24T07:13:23.657Z,58.90
2018-05-24T07:16:26.984Z,58.50
2018-05-24T07:19:30.328Z,59.50
2018-05-24T07:22:34.423Z,59.70
2018-05-24T07:25:38.643Z,59.20
2018-05-24T07:28:41.972Z,59.10
2018-05-24T07:31:45.326Z,59.40
2018-05-24T07:34:48.643Z,58.60
2018-05-24T07:37:52.119Z,58.30
2018-05-24T07:40:55.364Z,57.90
2018-05-24T07:43:58.830Z,58.30
2018-05-24T07:47:03.029Z,58.20
2018-05-24T07:50:06.453Z,58.10
2018-05-24T07:53:10.531Z,59.00
2018-05-24T07:56:13.823Z,58.40
2018-05-24T07:59:17.179Z,58.00
2018-05-24T08:02:20.525Z,59.10
2018-05-24T08:05:23.810Z,59.50
2018-05-24T08:08:27.149Z,58.80
2018-05-24T08:11:30.486Z,58.60
2018-05-24T08:14:33.839Z,59.10
2018-05-24T08:17:37.211Z,58.70
2018-05-24T08:20:40.610Z,58.70
2018-05-24T08:23:43.897Z,59.00
2018-05-24T08:26:47.543Z,59.60
2018-05-24T08:29:51.620Z,58.50
2018-05-24T08:32:54.994Z,58.50
2018-05-24T08:35:58.308Z,59.00
2018-05-24T08:39:01.658Z,59.10
2018-05-24T08:42:04.983Z,58.90
2018-05-24T08:45:08.336Z,58.70
2018-05-24T08:48:12.522Z,58.10
2018-05-24T08:51:15.920Z,58.10
2018-05-24T08:54:19.370Z,57.90
2018-05-24T08:57:22.704Z,57.90
2018-05-24T09:00:26.042Z,57.40
2018-05-24T09:03:29.517Z,57.10
2018-05-24T09:06:32.833Z,56.70
2018-05-24T09:09:36.146Z,56.40
2018-05-24T09:12:39.513Z,54.80
2018-05-24T09:15:42.902Z,55.20
2018-05-24T09:18:46.251Z,54.10
2018-05-24T09:21:49.683Z,55.00
2018-05-24T09:24:53.810Z,55.00
2018-05-24T09:27:57.165Z,55.00
2018-05-24T09:31:00.478Z,54.80
2018-05-24T09:34:03.818Z,54.70
2018-05-24T09:37:08.039Z,54.70
2018-05-24T09:40:12.225Z,53.40
2018-05-24T09:43:15.599Z,53.40
2018-05-24T09:46:19.023Z,53.50
2018-05-24T09:49:22.358Z,54.00
2018-05-24T09:52:26.448Z,54.00
2018-05-24T09:55:32.718Z,53.90
2018-05-24T09:58:36.085Z,53.60
2018-05-24T10:01:39.401Z,53.60
2018-05-24T10:04:42.767Z,53.80
2018-05-24T10:07:46.069Z,53.40
2018-05-24T10:10:49.415Z,52.50
2018-05-24T10:13:53.551Z,53.10
2018-05-24T10:16:56.880Z,53.00
2018-05-24T10:20:00.393Z,53.30
2018-05-24T10:23:03.777Z,53.80
2018-05-24T10:26:07.089Z,54.40
2018-05-24T10:29:10.421Z,53.50
2018-05-24T10:32:14.613Z,52.90
2018-05-24T10:35:17.996Z,52.90
2018-05-24T10:38:21.348Z,54.10
2018-05-24T10:41:24.719Z,54.20
2018-05-24T10:44:28.906Z,53.50
2018-05-24T10:47:32.304Z,53.50
2018-05-24T10:50:35.684Z,54.20
2018-05-24T10:53:38.988Z,54.40
2018-05-24T10:56:42.331Z,53.50
2018-05-24T10:59:46.480Z,53.90
2018-05-24T11:02:49.907Z,54.00
2018-05-24T11:05:53.409Z,53.70
2018-05-24T11:08:56.802Z,54.10
2018-05-24T11:12:00.199Z,54.60
2018-05-24T11:15:03.597Z,54.80
2018-05-24T11:18:06.994Z,52.90
2018-05-24T11:21:10.450Z,54.70
2018-05-24T11:24:13.789Z,54.90
2018-05-24T11:27:17.181Z,48.80
2018-05-24T11:30:20.599Z,48.20
2018-05-24T11:33:23.914Z,47.60
2018-05-24T11:36:28.014Z,46.80
2018-05-24T11:39:31.308Z,46.80
2018-05-24T11:42:35.500Z,48.00
2018-05-24T11:45:38.821Z,47.90
2018-05-24T11:48:42.150Z,49.70
2018-05-24T11:51:45.505Z,51.60
2018-05-24T11:54:48.882Z,51.20
2018-05-24T11:57:52.223Z,52.70
2018-05-24T12:00:56.390Z,53.40
2018-05-24T12:04:00.434Z,52.40
2018-05-24T12:07:03.861Z,52.40
2018-05-24T12:10:07.135Z,52.00
2018-05-24T12:13:10.522Z,53.10
2018-05-24T12:16:13.868Z,52.30
2018-05-24T12:19:17.233Z,52.20
2018-05-24T12:22:21.404Z,51.40
2018-05-24T12:25:24.803Z,51.90
2018-05-24T12:28:28.234Z,51.40
2018-05-24T12:31:31.583Z,51.00
2018-05-24T12:34:34.915Z,49.90
2018-05-24T12:37:38.295Z,50.00
2018-05-24T12:40:41.633Z,48.80
2018-05-24T12:43:45.698Z,49.00
2018-05-24T12:46:49.037Z,49.00
2018-05-24T12:49:53.120Z,49.70
2018-05-24T12:52:56.471Z,49.70
2018-05-24T12:55:59.915Z,49.10
2018-05-24T12:59:03.234Z,47.30
2018-05-24T13:02:06.570Z,45.80
2018-05-24T13:05:09.892Z,46.70
2018-05-24T13:08:13.318Z,47.10
2018-05-24T13:11:16.751Z,46.50
2018-05-24T13:14:20.059Z,45.90
2018-05-24T13:17:23.365Z,45.60
2018-05-24T13:20:26.731Z,44.70
2018-05-24T13:23:30.102Z,45.70
2018-05-24T13:26:33.509Z,45.20
2018-05-24T13:29:37.699Z,46.70
2018-05-24T13:32:41.035Z,46.70
2018-05-24T13:35:45.121Z,47.30
2018-05-24T13:38:48.478Z,47.30
2018-05-24T13:41:51.898Z,47.10
2018-05-24T13:44:55.307Z,47.40
2018-05-24T13:47:58.624Z,46.20
2018-05-24T13:51:01.973Z,46.20
2018-05-24T13:54:05.304Z,46.70
2018-05-24T13:57:08.680Z,47.10
2018-05-24T14:00:12.088Z,47.30
2018-05-24T14:03:15.490Z,47.90
2018-05-24T14:06:18.806Z,46.70
2018-05-24T14:09:23.038Z,48.00
2018-05-24T14:12:26.395Z,48.00
2018-05-24T14:15:29.744Z,47.80
2018-05-24T14:18:33.085Z,47.00
2018-05-24T14:21:36.445Z,46.70
2018-05-24T14:24:39.769Z,46.70
2018-05-24T14:27:43.165Z,45.60
2018-05-24T14:30:46.498Z,45.00
2018-05-24T14:33:50.692Z,46.40
2018-05-24T14:36:53.996Z,46.20
2018-05-24T14:39:57.331Z,46.80
2018-05-24T14:43:00.675Z,47.30
2018-05-24T14:46:04.082Z,47.60
2018-05-24T14:49:08.186Z,44.60
2018-05-24T14:52:11.524Z,44.20
2018-05-24T14:55:15.695Z,46.20
2018-05-24T14:58:19.024Z,46.20
2018-05-24T15:01:23.225Z,45.40
2018-05-24T15:04:26.568Z,45.40
2018-05-24T15:07:30.013Z,45.90
2018-05-24T15:10:33.317Z,45.60
2018-05-24T15:13:50.220Z,44.40
2018-05-24T15:16:53.618Z,43.40
2018-05-24T15:19:56.968Z,43.40
2018-05-24T15:23:00.405Z,43.30
2018-05-24T15:26:03.762Z,43.30
2018-05-24T15:29:07.099Z,42.60
2018-05-24T15:32:10.436Z,41.30
2018-05-24T15:35:14.526Z,42.00
2018-05-24T15:38:17.862Z,42.00
2018-05-24T15:41:21.322Z,41.10
2018-05-24T15:44:24.641Z,41.00
2018-05-24T15:47:28.814Z,42.00
2018-05-24T15:50:32.142Z,41.90
2018-05-24T15:53:36.261Z,41.70
2018-05-24T15:56:40.348Z,41.40
2018-05-24T15:59:43.749Z,41.40
2018-05-24T16:02:47.137Z,41.80
2018-05-24T16:05:50.474Z,41.80
2018-05-24T16:08:54.600Z,42.40
2018-05-24T16:11:57.917Z,42.40
2018-05-24T16:15:01.257Z,43.70
2018-05-24T16:18:04.586Z,45.50
2018-05-24T16:21:07.940Z,45.80
2018-05-24T16:24:11.342Z,46.80
2018-05-24T16:27:14.704Z,47.00
2018-05-24T16:30:18.077Z,47.10
2018-05-24T16:33:21.463Z,47.80
2018-05-24T16:36:25.656Z,47.80
2018-05-24T16:39:28.969Z,47.70
2018-05-24T16:42:33.145Z,45.00
2018-05-24T16:45:36.570Z,45.00
2018-05-24T16:48:39.970Z,44.10
2018-05-24T16:51:44.065Z,44.70
2018-05-24T16:54:47.388Z,44.00
2018-05-24T16:57:51.586Z,45.70
2018-05-24T17:00:54.969Z,45.70
2018-05-24T17:03:58.362Z,45.10
2018-05-24T17:07:01.686Z,45.80
2018-05-24T17:10:05.012Z,45.70
2018-05-24T17:13:08.468Z,45.80
2018-05-24T17:16:11.877Z,45.40
2018-05-24T17:19:15.245Z,46.80
2018-05-24T17:22:18.655Z,48.70
2018-05-24T17:25:21.973Z,50.20
2018-05-24T17:28:26.214Z,51.60
2018-05-24T17:31:29.579Z,52.80
2018-05-24T17:34:33.001Z,53.70
2018-05-24T17:37:37.173Z,55.80
2018-05-24T17:40:40.573Z,55.80
2018-05-24T17:43:44.797Z,57.90
2018-05-24T17:46:49.733Z,57.80
2018-05-24T17:49:53.106Z,57.70
2018-05-24T17:52:56.447Z,57.70
2018-05-24T17:56:00.637Z,57.90
2018-05-24T17:59:03.972Z,57.90
2018-05-24T18:02:07.313Z,58.90
2018-05-24T18:05:10.773Z,57.50
2018-05-24T18:08:14.121Z,57.50
2018-05-24T18:11:17.476Z,58.10
2018-05-24T18:14:20.821Z,58.30
2018-05-24T18:17:24.154Z,58.30
2018-05-24T18:20:27.674Z,58.20
2018-05-24T18:23:31.014Z,58.00
2018-05-24T18:26:34.360Z,58.40
2018-05-24T18:29:37.654Z,59.00
2018-05-24T18:32:41.019Z,58.30
2018-05-24T18:35:45.112Z,57.90
2018-05-24T18:38:48.474Z,57.10
2018-05-24T18:41:51.909Z,56.80
2018-05-24T18:44:55.298Z,57.60
2018-05-24T18:47:58.634Z,58.40
2018-05-24T18:51:02.708Z,59.50
2018-05-24T18:54:06.046Z,59.50
2018-05-24T18:57:10.217Z,59.60
2018-05-24T19:00:13.497Z,59.30
2018-05-24T19:03:16.945Z,59.40
2018-05-24T19:06:20.303Z,59.50
2018-05-24T19:09:23.642Z,59.40
2018-05-24T19:12:27.028Z,59.60
2018-05-24T19:15:31.873Z,59.90
2018-05-24T19:18:35.203Z,59.90
2018-05-24T19:21:38.647Z,60.00
2018-05-24T19:24:41.990Z,60.40
2018-05-24T19:27:46.174Z,60.60
2018-05-24T19:30:49.561Z,60.60
2018-05-24T19:33:52.965Z,61.20
2018-05-24T19:36:56.302Z,61.20
2018-05-24T19:40:00.412Z,62.20
2018-05-24T19:43:04.517Z,62.60
2018-05-24T19:46:07.841Z,62.50
2018-05-24T19:49:11.155Z,63.00
2018-05-24T19:52:14.512Z,62.90
2018-05-24T19:55:17.882Z,63.10
2018-05-24T19:58:21.210Z,63.40
2018-05-24T20:01:24.553Z,63.80
2018-05-24T20:04:27.892Z,64.10
2018-05-24T20:07:32.546Z,64.70
2018-05-24T20:10:36.842Z,64.70
2018-05-24T20:13:40.189Z,64.70
2018-05-24T20:16:43.605Z,64.80
2018-05-24T20:19:47.037Z,64.90
2018-05-24T20:22:50.534Z,65.50
2018-05-24T20:25:54.854Z,65.80
2018-05-24T20:28:58.261Z,66.00
2018-05-24T20:32:01.659Z,66.20
2018-05-24T20:35:04.971Z,66.40
2018-05-24T20:38:08.550Z,66.80
2018-05-24T20:41:11.945Z,67.30
2018-05-24T20:44:15.319Z,67.70
2018-05-24T20:47:19.044Z,68.40
2018-05-24T20:50:22.369Z,68.90
2018-05-24T20:53:25.706Z,69.70
2018-05-24T20:56:29.240Z,70.30
2018-05-24T20:59:32.763Z,71.00
2018-05-24T21:02:36.259Z,71.50
2018-05-24T21:05:39.687Z,72.80
2018-05-24T21:08:43.103Z,72.60
2018-05-24T21:11:46.540Z,72.90
2018-05-24T21:14:49.886Z,73.80
2018-05-24T21:17:53.222Z,74.80
2018-05-24T21:20:56.551Z,75.80
2018-05-24T21:23:59.900Z,76.20
2018-05-24T21:27:03.239Z,76.30
2018-05-24T21:30:06.626Z,76.80
2018-05-24T21:33:10.011Z,76.80
2018-05-24T21:36:13.431Z,77.10
2018-05-24T21:39:16.806Z,76.80
2018-05-24T21:42:20.141Z,75.90
2018-05-24T21:45:24.225Z,76.00
2018-05-24T21:48:27.617Z,75.90
2018-05-24T21:51:30.934Z,76.20
2018-05-24T21:54:34.272Z,76.10
2018-05-24T21:57:37.619Z,76.40
2018-05-24T22:00:46.409Z,76.20
2018-05-24T22:03:50.538Z,75.80
2018-05-24T22:06:53.950Z,75.60
2018-05-24T22:09:57.337Z,75.10
2018-05-24T22:13:00.738Z,74.50
2018-05-24T22:16:04.142Z,74.60
2018-05-24T22:19:07.530Z,74.60
2018-05-24T22:22:10.865Z,74.10
2018-05-24T22:25:14.951Z,74.50
2018-05-24T22:28:18.288Z,74.50
2018-05-24T22:31:21.605Z,74.40
2018-05-24T22:34:25.042Z,74.70
2018-05-24T22:37:28.395Z,75.20
2018-05-24T22:40:31.842Z,75.60
2018-05-24T22:43:35.223Z,75.90
2018-05-24T22:46:38.590Z,76.40
2018-05-24T22:49:41.948Z,76.40
2018-05-24T22:52:46.015Z,77.80
2018-05-24T22:55:49.352Z,77.70
2018-05-24T22:58:53.541Z,79.70
2018-05-24T23:01:56.933Z,79.70
2018-05-24T23:05:00.247Z,80.90
2018-05-24T23:08:04.959Z,80.10
2018-05-24T23:11:08.261Z,80.10
2018-05-24T23:14:11.657Z,79.70
2018-05-24T23:17:14.990Z,78.60
2018-05-24T23:20:19.065Z,77.70
2018-05-24T23:23:22.422Z,77.70
2018-05-24T23:26:25.750Z,77.80
2018-05-24T23:29:29.172Z,77.70
2018-05-24T23:32:32.505Z,78.30
2018-05-24T23:35:35.802Z,77.70
2018-05-24T23:38:39.154Z,77.80
2018-05-24T23:41:42.474Z,78.10
2018-05-24T23:44:46.572Z,79.10
2018-05-24T23:47:49.936Z,78.90
2018-05-24T23:50:53.340Z,79.70
2018-05-24T23:53:56.660Z,80.20
2018-05-24T23:56:59.978Z,80.80
